Alexandra G — SY8484 — position and weather

sailwx.info

Track history (hours):
 
Tides and Currents Weather Stations Pressure Air Temp Water Temp Dewpoint Dewpoint Depression Visibility Wind Speed Wind Dir Waves Ship Positions

Alexandra G

Last reported at 2018-Feb-18 03:28 UTC. Time now 2018-Feb-18 03:43 UTC.
Position N 37°58' E 023°37'.

Length 74 m; draft 2.7 m.

Type: Ship (hazmat cat A). MMSI: 240688000.

Date/timePositionNaut miles runAvg speedWind from/ knotsBaromVisibWave heightAir tempDewpointWater temp
2018-Feb-18 03:28N 37°58' E 023°37'0 0.0
2018-Feb-18 02:58N 37°58' E 023°37'0 0.0
2018-Feb-18 02:28N 37°58' E 023°37'0 0.0
2018-Feb-18 01:58N 37°58' E 023°37'0 0.0
2018-Feb-18 01:28N 37°58' E 023°37'0 0.0
2018-Feb-18 00:58N 37°58' E 023°37'0 0.0
2018-Feb-18 00:28N 37°58' E 023°37'0 0.0
2018-Feb-17 23:58N 37°58' E 023°37'0 0.0
2018-Feb-17 23:28N 37°58' E 023°37'0 0.0
2018-Feb-17 22:58N 37°58' E 023°37'0 0.0
2018-Feb-17 22:28N 37°58' E 023°37'0 0.0
2018-Feb-17 21:58N 37°58' E 023°37'0 0.0
2018-Feb-17 21:28N 37°58' E 023°37'0 0.0
2018-Feb-17 20:58N 37°58' E 023°37'0 0.0
2018-Feb-17 20:28N 37°58' E 023°37'0 0.0
2018-Feb-17 19:58N 37°58' E 023°37'0 0.0
2018-Feb-17 19:28N 37°58' E 023°37'0 0.0
2018-Feb-17 18:58N 37°58' E 023°37'0 0.0
2018-Feb-17 18:28N 37°58' E 023°37'0 0.0
2018-Feb-17 17:58N 37°58' E 023°37'0 0.0
2018-Feb-17 17:28N 37°58' E 023°37'0 0.0
2018-Feb-17 16:58N 37°58' E 023°37'0 0.0
2018-Feb-17 16:28N 37°58' E 023°37'0 0.0
2018-Feb-17 15:58N 37°58' E 023°37'0 0.0
2018-Feb-17 15:28N 37°58' E 023°37'0 0.0
2018-Feb-17 14:58N 37°58' E 023°37'0 0.0
2018-Feb-17 14:28N 37°58' E 023°37'0 0.0
2018-Feb-17 13:58N 37°58' E 023°37'0 0.0
2018-Feb-17 13:28N 37°58' E 023°37'0 0.0
2018-Feb-17 12:58N 37°58' E 023°37'0 0.0
2018-Feb-17 12:28N 37°58' E 023°37'0 0.0
2018-Feb-17 11:58N 37°58' E 023°37'0 0.0
2018-Feb-17 11:28N 37°58' E 023°37'0 0.0
2018-Feb-17 10:58N 37°58' E 023°37'0 0.0
2018-Feb-17 10:28N 37°58' E 023°37'0 0.0
2018-Feb-17 09:58N 37°58' E 023°37'0 0.0
2018-Feb-17 09:28N 37°58' E 023°37'0 0.0
2018-Feb-17 08:58N 37°58' E 023°37'0 0.0
2018-Feb-17 08:28N 37°58' E 023°37'0 0.0
2018-Feb-17 07:58N 37°58' E 023°37'0 0.0
2018-Feb-17 07:28N 37°58' E 023°37'0 0.0
2018-Feb-17 06:58N 37°58' E 023°37'0 0.0
2018-Feb-17 06:28N 37°58' E 023°37'0 0.0
2018-Feb-17 05:58N 37°57' E 023°37'0 0.0
2018-Feb-17 05:28N 37°57' E 023°37'0 0.0
2018-Feb-17 04:58N 37°57' E 023°37'0 0.0
2018-Feb-17 04:28N 37°57' E 023°37'2 3.6
2018-Feb-17 04:00N 37°57' E 023°35'5 9.2
2018-Feb-17 03:30N 37°52' E 023°32'1 2.7
2018-Feb-17 03:00N 37°51' E 023°31'0 0.0
2018-Feb-17 02:30N 37°51' E 023°31'0 0.0
2018-Feb-17 02:00N 37°51' E 023°31'0 0.0
2018-Feb-17 01:30N 37°51' E 023°31'0 0.0
2018-Feb-17 01:00N 37°51' E 023°31'0 0.0
2018-Feb-17 00:30N 37°51' E 023°31'0 0.0
2018-Feb-17 00:00N 37°51' E 023°31'0 0.1
2018-Feb-16 23:30N 37°51' E 023°31'0 0.0
2018-Feb-16 23:00N 37°51' E 023°31'0 0.0
2018-Feb-16 22:30N 37°51' E 023°31'0 0.0
2018-Feb-16 22:00N 37°51' E 023°31'2 5.1
2018-Feb-16 21:30N 37°54' E 023°33'4 9.0
2018-Feb-16 21:01N 37°57' E 023°36'1 1.0
2018-Feb-16 20:29N 37°57' E 023°37'0 0.0
2018-Feb-16 19:59N 37°57' E 023°37'0 0.0
2018-Feb-16 19:29N 37°57' E 023°37'0 0.0
2018-Feb-16 18:59N 37°57' E 023°37'0 0.0
2018-Feb-16 18:29N 37°57' E 023°37'0 0.0
2018-Feb-16 17:59N 37°57' E 023°37'0 0.0
2018-Feb-16 17:29N 37°57' E 023°37'0 0.0
2018-Feb-16 16:56N 37°57' E 023°37'0 0.0
2018-Feb-16 16:23N 37°57' E 023°37'0 0.0
2018-Feb-16 15:59N 37°57' E 023°37'0 0.0
2018-Feb-16 15:29N 37°57' E 023°37'0 0.1
2018-Feb-16 14:59N 37°58' E 023°37'2 4.2
2018-Feb-16 14:31N 37°57' E 023°34'1 1.8
2018-Feb-16 14:00N 37°57' E 023°33'4 6.6
2018-Feb-16 13:28N 38°01' E 023°32'0 0.1
2018-Feb-16 12:58N 38°01' E 023°32'0 0.0
2018-Feb-16 12:28N 38°01' E 023°32'0 0.0
2018-Feb-16 11:58N 38°01' E 023°32'0 0.0
2018-Feb-16 11:28N 38°01' E 023°32'1 1.3
2018-Feb-16 10:59N 38°01' E 023°32'0 0.0
2018-Feb-16 10:29N 38°01' E 023°32'0 0.0
2018-Feb-16 09:59N 38°01' E 023°32'0 0.0
2018-Feb-16 09:29N 38°01' E 023°32'0 0.0
2018-Feb-16 08:59N 38°01' E 023°32'0 0.0
2018-Feb-16 08:29N 38°01' E 023°32'0 0.1
2018-Feb-16 07:59N 38°01' E 023°33'3 6.0
2018-Feb-16 07:30N 37°59' E 023°33'3 5.9
2018-Feb-16 07:00N 37°57' E 023°36'0 0.6
2018-Feb-16 06:30N 37°58' E 023°37'0 0.0
2018-Feb-16 06:00N 37°58' E 023°37'0 0.0
2018-Feb-16 05:30N 37°58' E 023°37'0 0.0
2018-Feb-16 04:54N 37°58' E 023°37'0 0.0
2018-Feb-16 04:30N 37°58' E 023°37'0 0.0
2018-Feb-16 04:00N 37°58' E 023°37'0 0.0
2018-Feb-16 03:30N 37°58' E 023°37'0 0.0
2018-Feb-16 02:57N 37°58' E 023°37'0 0.0
2018-Feb-16 02:30N 37°58' E 023°37'0 0.0
2018-Feb-16 02:00N 37°58' E 023°37'0 0.0
2018-Feb-16 01:30N 37°58' E 023°37'0 0.0
2018-Feb-16 01:00N 37°58' E 023°37'0 0.0
2018-Feb-16 00:30N 37°58' E 023°37'0 0.0
2018-Feb-16 00:00N 37°58' E 023°37'0 0.0
2018-Feb-15 23:30N 37°58' E 023°37'0 0.0
2018-Feb-15 23:00N 37°58' E 023°37'0 0.0
2018-Feb-15 22:30N 37°58' E 023°37'0 0.0
2018-Feb-15 22:00N 37°58' E 023°37'0 0.0
2018-Feb-15 21:30N 37°58' E 023°37'0 0.0
2018-Feb-15 21:00N 37°58' E 023°37'0 0.0
2018-Feb-15 20:30N 37°58' E 023°37'0 0.0
2018-Feb-15 20:00N 37°58' E 023°37'0 0.0
2018-Feb-15 19:30N 37°58' E 023°37'0 0.0
2018-Feb-15 19:00N 37°58' E 023°37'0 0.0
2018-Feb-15 18:30N 37°58' E 023°37'0 0.0
2018-Feb-15 18:00N 37°58' E 023°37'0 0.0
2018-Feb-15 17:30N 37°58' E 023°37'0 0.0
2018-Feb-15 17:00N 37°58' E 023°37'0 0.0
2018-Feb-15 16:30N 37°58' E 023°37'0 0.0
2018-Feb-15 16:00N 37°58' E 023°37'0 0.0
2018-Feb-15 15:27N 37°58' E 023°37'0 0.0
2018-Feb-15 15:00N 37°58' E 023°37'0 0.0
2018-Feb-15 14:30N 37°58' E 023°37'0 0.0
2018-Feb-15 14:00N 37°58' E 023°37'0 0.0
2018-Feb-15 13:27N 37°58' E 023°37'0 0.0
2018-Feb-15 13:00N 37°58' E 023°37'0 0.0
2018-Feb-15 12:30N 37°58' E 023°37'0 0.0
2018-Feb-15 12:00N 37°58' E 023°37'0 0.0
2018-Feb-15 11:30N 37°58' E 023°37'0 0.0
2018-Feb-15 11:00N 37°58' E 023°37'0 0.0
2018-Feb-15 10:30N 37°58' E 023°37'0 0.0
2018-Feb-15 10:00N 37°58' E 023°37'0 0.0
2018-Feb-15 09:30N 37°58' E 023°37'0 0.0
2018-Feb-15 09:00N 37°58' E 023°37'0 0.0
2018-Feb-15 08:30N 37°58' E 023°37'0 0.0
2018-Feb-15 08:00N 37°58' E 023°37'0 0.0
2018-Feb-15 07:30N 37°58' E 023°37'0 0.0
2018-Feb-15 07:00N 37°58' E 023°37'0 1.0
2018-Feb-15 06:30N 37°57' E 023°36'2 3.7
2018-Feb-15 06:00N 37°57' E 023°34'3 5.8
2018-Feb-15 05:30N 38°00' E 023°33'2 3.2
2018-Feb-15 04:54N 38°01' E 023°35'0 0.0
2018-Feb-15 04:27N 38°01' E 023°35'0 0.1
2018-Feb-15 04:00N 38°01' E 023°35'0 0.0
2018-Feb-15 03:30N 38°01' E 023°35'0 0.0
2018-Feb-15 03:00N 38°01' E 023°35'0 0.1
2018-Feb-15 02:27N 38°01' E 023°35'0 0.0
2018-Feb-15 01:54N 38°01' E 023°35'0 0.0
2018-Feb-15 01:27N 38°01' E 023°35'0 0.0
2018-Feb-15 01:00N 38°01' E 023°35'0 0.0
2018-Feb-15 00:30N 38°01' E 023°35'0 0.0
2018-Feb-15 00:00N 38°01' E 023°35'0 0.0
2018-Feb-14 23:30N 38°01' E 023°35'0 0.0
2018-Feb-14 22:48N 38°01' E 023°35'0 0.1
2018-Feb-14 22:30N 38°01' E 023°35'0 0.0
2018-Feb-14 22:00N 38°01' E 023°35'0 0.0
2018-Feb-14 21:30N 38°01' E 023°35'0 0.0
2018-Feb-14 21:00N 38°01' E 023°35'0 0.0
2018-Feb-14 20:30N 38°01' E 023°35'0 0.0
2018-Feb-14 20:00N 38°01' E 023°35'0 0.1
2018-Feb-14 19:28N 38°01' E 023°35'1 1.6
2018-Feb-14 18:59N 38°02' E 023°36'0 0.0
2018-Feb-14 18:29N 38°02' E 023°36'0 0.0
2018-Feb-14 17:59N 38°02' E 023°36'0 0.0
2018-Feb-14 17:29N 38°02' E 023°36'0 0.0
2018-Feb-14 16:59N 38°02' E 023°36'0 0.0
2018-Feb-14 16:29N 38°02' E 023°36'0 0.0
2018-Feb-14 15:59N 38°02' E 023°36'0 0.0
2018-Feb-14 15:29N 38°02' E 023°36'0 0.0
2018-Feb-14 14:59N 38°02' E 023°36'0 0.0
2018-Feb-14 14:29N 38°02' E 023°36'0 0.0
2018-Feb-14 13:59N 38°02' E 023°36'0 0.0
2018-Feb-14 13:29N 38°02' E 023°36'0 0.0
2018-Feb-14 12:59N 38°02' E 023°36'0 0.0
2018-Feb-14 12:29N 38°02' E 023°36'0 0.0
2018-Feb-14 11:56N 38°02' E 023°36'0 0.0
2018-Feb-14 11:26N 38°02' E 023°36'0 0.0
2018-Feb-14 10:59N 38°02' E 023°36'0 0.0
2018-Feb-14 10:30N 38°02' E 023°36'0 0.0
2018-Feb-14 10:00N 38°02' E 023°36'1 1.2
2018-Feb-14 09:30N 38°02' E 023°35'0 0.0
2018-Feb-14 09:00N 38°02' E 023°35'0 0.0
2018-Feb-14 08:30N 38°02' E 023°35'0 0.0
2018-Feb-14 08:00N 38°02' E 023°35'0 0.0
2018-Feb-14 07:30N 38°02' E 023°35'2 4.4
2018-Feb-14 07:00N 38°00' E 023°33'4 7.1
2018-Feb-14 06:30N 37°57' E 023°36'0 0.8
2018-Feb-14 05:59N 37°58' E 023°37'0 0.0
2018-Feb-14 05:26N 37°58' E 023°37'0 0.0
2018-Feb-14 04:59N 37°58' E 023°37'0 0.0
2018-Feb-14 04:29N 37°58' E 023°37'0 0.0
2018-Feb-14 03:59N 37°58' E 023°37'0 0.0
2018-Feb-14 03:29N 37°58' E 023°37'0 0.0
2018-Feb-14 02:59N 37°58' E 023°37'0 0.0
2018-Feb-14 02:29N 37°58' E 023°37'0 0.0
2018-Feb-14 01:59N 37°58' E 023°37'0 0.0
2018-Feb-14 01:29N 37°58' E 023°37'0 0.0
2018-Feb-14 00:59N 37°58' E 023°37'0 0.0
2018-Feb-14 00:29N 37°58' E 023°37'0 0.0
2018-Feb-13 23:59N 37°58' E 023°37'0 0.0
2018-Feb-13 23:29N 37°58' E 023°37'0 0.0
2018-Feb-13 22:59N 37°58' E 023°37'0 0.0
2018-Feb-13 22:29N 37°58' E 023°37'0 0.0
2018-Feb-13 21:59N 37°58' E 023°37'0 0.0
2018-Feb-13 21:29N 37°58' E 023°37'0 0.0
2018-Feb-13 20:59N 37°58' E 023°37'0 0.0
2018-Feb-13 20:29N 37°58' E 023°37'0 0.0
2018-Feb-13 19:59N 37°58' E 023°37'0 0.0
2018-Feb-13 19:29N 37°58' E 023°37'0 0.0
2018-Feb-13 18:59N 37°58' E 023°37'0 0.0
2018-Feb-13 18:29N 37°58' E 023°37'0 0.0
2018-Feb-13 17:59N 37°58' E 023°37'0 0.0
2018-Feb-13 17:29N 37°58' E 023°37'0 0.0
2018-Feb-13 16:59N 37°58' E 023°37'0 0.0
2018-Feb-13 16:29N 37°58' E 023°37'0 0.0
2018-Feb-13 15:59N 37°58' E 023°37'0 0.0
2018-Feb-13 15:29N 37°58' E 023°37'0 0.0
2018-Feb-13 14:59N 37°58' E 023°37'0 0.0
2018-Feb-13 14:29N 37°58' E 023°37'0 0.0
2018-Feb-13 13:59N 37°58' E 023°37'0 0.0
2018-Feb-13 13:29N 37°58' E 023°37'0 0.0
2018-Feb-13 12:59N 37°58' E 023°37'0 0.0
2018-Feb-13 12:29N 37°58' E 023°37'0 0.0
2018-Feb-13 11:59N 37°58' E 023°37'0 0.0
2018-Feb-13 11:29N 37°58' E 023°37'0 0.0
2018-Feb-13 10:59N 37°58' E 023°37'0 0.0
2018-Feb-13 10:29N 37°58' E 023°37'0 0.0
2018-Feb-13 09:59N 37°58' E 023°37'0 0.0
2018-Feb-13 09:29N 37°58' E 023°37'0 0.0
2018-Feb-13 08:59N 37°58' E 023°37'0 0.0
2018-Feb-13 08:29N 37°58' E 023°37'0 0.0
2018-Feb-13 07:59N 37°58' E 023°37'0 0.0
2018-Feb-13 07:29N 37°58' E 023°37'0 0.5
2018-Feb-13 07:00N 37°57' E 023°36'3 6.4
2018-Feb-13 06:31N 37°55' E 023°35'4 7.5
2018-Feb-13 05:59N 37°51' E 023°32'0 0.0
2018-Feb-13 05:29N 37°51' E 023°32'0 0.1
2018-Feb-13 04:59N 37°51' E 023°32'0 0.0
2018-Feb-13 04:29N 37°51' E 023°32'0 0.0
2018-Feb-13 03:59N 37°51' E 023°32'0 0.0
2018-Feb-13 03:29N 37°51' E 023°32'0 0.0
2018-Feb-13 02:59N 37°51' E 023°32'0 0.1
2018-Feb-13 02:29N 37°51' E 023°32'0 0.1
2018-Feb-13 01:59N 37°51' E 023°32'0 0.0
2018-Feb-13 01:29N 37°51' E 023°32'0 0.0
2018-Feb-13 00:59N 37°51' E 023°32'0 0.1
2018-Feb-13 00:29N 37°51' E 023°32'0 0.0
2018-Feb-12 23:59N 37°51' E 023°32'0 0.1
2018-Feb-12 23:29N 37°51' E 023°32'0 0.3
2018-Feb-12 23:00N 37°51' E 023°32'4 7.7
2018-Feb-12 22:30N 37°55' E 023°34'3 6.7
2018-Feb-12 22:00N 37°57' E 023°37'0 0.0
2018-Feb-12 21:30N 37°57' E 023°37'0 0.9
2018-Feb-12 21:00N 37°57' E 023°36'3 6.4
2018-Feb-12 20:30N 37°54' E 023°37'510.6
2018-Feb-12 20:00N 37°49' E 023°40'510.8
2018-Feb-12 19:30N 37°45' E 023°42'510.7
2018-Feb-12 19:00N 37°40' E 023°45'  
2018-Feb-09 08:01N 37°56' E 023°36'5 9.0
2018-Feb-09 07:31N 37°53' E 023°31'8 2.6
2018-Feb-09 04:30N 38°01' E 023°31'0 0.0
2018-Feb-09 02:30N 38°01' E 023°31'1 0.2
2018-Feb-08 22:00N 38°02' E 023°31'0 0.0
2018-Feb-08 21:30N 38°02' E 023°31'6 0.6
2018-Feb-08 11:30N 37°57' E 023°35'0 0.2
2018-Feb-08 11:00N 37°57' E 023°35'0 0.0
2018-Feb-08 10:30N 37°57' E 023°35'0 0.0
2018-Feb-08 05:30N 37°57' E 023°35'  
Track history (hours):
 
Tides and Currents Weather Stations Pressure Air Temp Water Temp Dewpoint Dewpoint Depression Visibility Wind Speed Wind Dir Waves Ship Positions

Alexandra G

Last reported at 2018-Feb-18 03:28 UTC. Time now 2018-Feb-18 03:43 UTC.
Position N 37°58' E 023°37'.

Length 74 m; draft 2.7 m.

Type: Ship (hazmat cat A). MMSI: 240688000.

Date/timePositionNaut miles runAvg speedWind from/ knotsBaromVisibWave heightAir tempDewpointWater temp
2018-Feb-18 03:28N 37°58' E 023°37'0 0.0
2018-Feb-18 02:58N 37°58' E 023°37'0 0.0
2018-Feb-18 02:28N 37°58' E 023°37'0 0.0
2018-Feb-18 01:58N 37°58' E 023°37'0 0.0
2018-Feb-18 01:28N 37°58' E 023°37'0 0.0
2018-Feb-18 00:58N 37°58' E 023°37'0 0.0
2018-Feb-18 00:28N 37°58' E 023°37'0 0.0
2018-Feb-17 23:58N 37°58' E 023°37'0 0.0
2018-Feb-17 23:28N 37°58' E 023°37'0 0.0
2018-Feb-17 22:58N 37°58' E 023°37'0 0.0
2018-Feb-17 22:28N 37°58' E 023°37'0 0.0
2018-Feb-17 21:58N 37°58' E 023°37'0 0.0
2018-Feb-17 21:28N 37°58' E 023°37'0 0.0
2018-Feb-17 20:58N 37°58' E 023°37'0 0.0
2018-Feb-17 20:28N 37°58' E 023°37'0 0.0
2018-Feb-17 19:58N 37°58' E 023°37'0 0.0
2018-Feb-17 19:28N 37°58' E 023°37'0 0.0
2018-Feb-17 18:58N 37°58' E 023°37'0 0.0
2018-Feb-17 18:28N 37°58' E 023°37'0 0.0
2018-Feb-17 17:58N 37°58' E 023°37'0 0.0
2018-Feb-17 17:28N 37°58' E 023°37'0 0.0
2018-Feb-17 16:58N 37°58' E 023°37'0 0.0
2018-Feb-17 16:28N 37°58' E 023°37'0 0.0
2018-Feb-17 15:58N 37°58' E 023°37'0 0.0
2018-Feb-17 15:28N 37°58' E 023°37'0 0.0
2018-Feb-17 14:58N 37°58' E 023°37'0 0.0
2018-Feb-17 14:28N 37°58' E 023°37'0 0.0
2018-Feb-17 13:58N 37°58' E 023°37'0 0.0
2018-Feb-17 13:28N 37°58' E 023°37'0 0.0
2018-Feb-17 12:58N 37°58' E 023°37'0 0.0
2018-Feb-17 12:28N 37°58' E 023°37'0 0.0
2018-Feb-17 11:58N 37°58' E 023°37'0 0.0
2018-Feb-17 11:28N 37°58' E 023°37'0 0.0
2018-Feb-17 10:58N 37°58' E 023°37'0 0.0
2018-Feb-17 10:28N 37°58' E 023°37'0 0.0
2018-Feb-17 09:58N 37°58' E 023°37'0 0.0
2018-Feb-17 09:28N 37°58' E 023°37'0 0.0
2018-Feb-17 08:58N 37°58' E 023°37'0 0.0
2018-Feb-17 08:28N 37°58' E 023°37'0 0.0
2018-Feb-17 07:58N 37°58' E 023°37'0 0.0
2018-Feb-17 07:28N 37°58' E 023°37'0 0.0
2018-Feb-17 06:58N 37°58' E 023°37'0 0.0
2018-Feb-17 06:28N 37°58' E 023°37'0 0.0
2018-Feb-17 05:58N 37°57' E 023°37'0 0.0
2018-Feb-17 05:28N 37°57' E 023°37'0 0.0
2018-Feb-17 04:58N 37°57' E 023°37'0 0.0
2018-Feb-17 04:28N 37°57' E 023°37'2 3.6
2018-Feb-17 04:00N 37°57' E 023°35'5 9.2
2018-Feb-17 03:30N 37°52' E 023°32'1 2.7
2018-Feb-17 03:00N 37°51' E 023°31'0 0.0
2018-Feb-17 02:30N 37°51' E 023°31'0 0.0
2018-Feb-17 02:00N 37°51' E 023°31'0 0.0
2018-Feb-17 01:30N 37°51' E 023°31'0 0.0
2018-Feb-17 01:00N 37°51' E 023°31'0 0.0
2018-Feb-17 00:30N 37°51' E 023°31'0 0.0
2018-Feb-17 00:00N 37°51' E 023°31'0 0.1
2018-Feb-16 23:30N 37°51' E 023°31'0 0.0
2018-Feb-16 23:00N 37°51' E 023°31'0 0.0
2018-Feb-16 22:30N 37°51' E 023°31'0 0.0
2018-Feb-16 22:00N 37°51' E 023°31'2 5.1
2018-Feb-16 21:30N 37°54' E 023°33'4 9.0
2018-Feb-16 21:01N 37°57' E 023°36'1 1.0
2018-Feb-16 20:29N 37°57' E 023°37'0 0.0
2018-Feb-16 19:59N 37°57' E 023°37'0 0.0
2018-Feb-16 19:29N 37°57' E 023°37'0 0.0
2018-Feb-16 18:59N 37°57' E 023°37'0 0.0
2018-Feb-16 18:29N 37°57' E 023°37'0 0.0
2018-Feb-16 17:59N 37°57' E 023°37'0 0.0
2018-Feb-16 17:29N 37°57' E 023°37'0 0.0
2018-Feb-16 16:56N 37°57' E 023°37'0 0.0
2018-Feb-16 16:23N 37°57' E 023°37'0 0.0
2018-Feb-16 15:59N 37°57' E 023°37'0 0.0
2018-Feb-16 15:29N 37°57' E 023°37'0 0.1
2018-Feb-16 14:59N 37°58' E 023°37'2 4.2
2018-Feb-16 14:31N 37°57' E 023°34'1 1.8
2018-Feb-16 14:00N 37°57' E 023°33'4 6.6
2018-Feb-16 13:28N 38°01' E 023°32'0 0.1
2018-Feb-16 12:58N 38°01' E 023°32'0 0.0
2018-Feb-16 12:28N 38°01' E 023°32'0 0.0
2018-Feb-16 11:58N 38°01' E 023°32'0 0.0
2018-Feb-16 11:28N 38°01' E 023°32'1 1.3
2018-Feb-16 10:59N 38°01' E 023°32'0 0.0
2018-Feb-16 10:29N 38°01' E 023°32'0 0.0
2018-Feb-16 09:59N 38°01' E 023°32'0 0.0
2018-Feb-16 09:29N 38°01' E 023°32'0 0.0
2018-Feb-16 08:59N 38°01' E 023°32'0 0.0
2018-Feb-16 08:29N 38°01' E 023°32'0 0.1
2018-Feb-16 07:59N 38°01' E 023°33'3 6.0
2018-Feb-16 07:30N 37°59' E 023°33'3 5.9
2018-Feb-16 07:00N 37°57' E 023°36'0 0.6
2018-Feb-16 06:30N 37°58' E 023°37'0 0.0
2018-Feb-16 06:00N 37°58' E 023°37'0 0.0
2018-Feb-16 05:30N 37°58' E 023°37'0 0.0
2018-Feb-16 04:54N 37°58' E 023°37'0 0.0
2018-Feb-16 04:30N 37°58' E 023°37'0 0.0
2018-Feb-16 04:00N 37°58' E 023°37'0 0.0
2018-Feb-16 03:30N 37°58' E 023°37'0 0.0
2018-Feb-16 02:57N 37°58' E 023°37'0 0.0
2018-Feb-16 02:30N 37°58' E 023°37'0 0.0
2018-Feb-16 02:00N 37°58' E 023°37'0 0.0
2018-Feb-16 01:30N 37°58' E 023°37'0 0.0
2018-Feb-16 01:00N 37°58' E 023°37'0 0.0
2018-Feb-16 00:30N 37°58' E 023°37'0 0.0
2018-Feb-16 00:00N 37°58' E 023°37'0 0.0
2018-Feb-15 23:30N 37°58' E 023°37'0 0.0
2018-Feb-15 23:00N 37°58' E 023°37'0 0.0
2018-Feb-15 22:30N 37°58' E 023°37'0 0.0
2018-Feb-15 22:00N 37°58' E 023°37'0 0.0
2018-Feb-15 21:30N 37°58' E 023°37'0 0.0
2018-Feb-15 21:00N 37°58' E 023°37'0 0.0
2018-Feb-15 20:30N 37°58' E 023°37'0 0.0
2018-Feb-15 20:00N 37°58' E 023°37'0 0.0
2018-Feb-15 19:30N 37°58' E 023°37'0 0.0
2018-Feb-15 19:00N 37°58' E 023°37'0 0.0
2018-Feb-15 18:30N 37°58' E 023°37'0 0.0
2018-Feb-15 18:00N 37°58' E 023°37'0 0.0
2018-Feb-15 17:30N 37°58' E 023°37'0 0.0
2018-Feb-15 17:00N 37°58' E 023°37'0 0.0
2018-Feb-15 16:30N 37°58' E 023°37'0 0.0
2018-Feb-15 16:00N 37°58' E 023°37'0 0.0
2018-Feb-15 15:27N 37°58' E 023°37'0 0.0
2018-Feb-15 15:00N 37°58' E 023°37'0 0.0
2018-Feb-15 14:30N 37°58' E 023°37'0 0.0
2018-Feb-15 14:00N 37°58' E 023°37'0 0.0
2018-Feb-15 13:27N 37°58' E 023°37'0 0.0
2018-Feb-15 13:00N 37°58' E 023°37'0 0.0
2018-Feb-15 12:30N 37°58' E 023°37'0 0.0
2018-Feb-15 12:00N 37°58' E 023°37'0 0.0
2018-Feb-15 11:30N 37°58' E 023°37'0 0.0
2018-Feb-15 11:00N 37°58' E 023°37'0 0.0
2018-Feb-15 10:30N 37°58' E 023°37'0 0.0
2018-Feb-15 10:00N 37°58' E 023°37'0 0.0
2018-Feb-15 09:30N 37°58' E 023°37'0 0.0
2018-Feb-15 09:00N 37°58' E 023°37'0 0.0
2018-Feb-15 08:30N 37°58' E 023°37'0 0.0
2018-Feb-15 08:00N 37°58' E 023°37'0 0.0
2018-Feb-15 07:30N 37°58' E 023°37'0 0.0
2018-Feb-15 07:00N 37°58' E 023°37'0 1.0
2018-Feb-15 06:30N 37°57' E 023°36'2 3.7
2018-Feb-15 06:00N 37°57' E 023°34'3 5.8
2018-Feb-15 05:30N 38°00' E 023°33'2 3.2
2018-Feb-15 04:54N 38°01' E 023°35'0 0.0
2018-Feb-15 04:27N 38°01' E 023°35'0 0.1
2018-Feb-15 04:00N 38°01' E 023°35'0 0.0
2018-Feb-15 03:30N 38°01' E 023°35'0 0.0
2018-Feb-15 03:00N 38°01' E 023°35'0 0.1
2018-Feb-15 02:27N 38°01' E 023°35'0 0.0
2018-Feb-15 01:54N 38°01' E 023°35'0 0.0
2018-Feb-15 01:27N 38°01' E 023°35'0 0.0
2018-Feb-15 01:00N 38°01' E 023°35'0 0.0
2018-Feb-15 00:30N 38°01' E 023°35'0 0.0
2018-Feb-15 00:00N 38°01' E 023°35'0 0.0
2018-Feb-14 23:30N 38°01' E 023°35'0 0.0
2018-Feb-14 22:48N 38°01' E 023°35'0 0.1
2018-Feb-14 22:30N 38°01' E 023°35'0 0.0
2018-Feb-14 22:00N 38°01' E 023°35'0 0.0
2018-Feb-14 21:30N 38°01' E 023°35'0 0.0
2018-Feb-14 21:00N 38°01' E 023°35'0 0.0
2018-Feb-14 20:30N 38°01' E 023°35'0 0.0
2018-Feb-14 20:00N 38°01' E 023°35'0 0.1
2018-Feb-14 19:28N 38°01' E 023°35'1 1.6
2018-Feb-14 18:59N 38°02' E 023°36'0 0.0
2018-Feb-14 18:29N 38°02' E 023°36'0 0.0
2018-Feb-14 17:59N 38°02' E 023°36'0 0.0
2018-Feb-14 17:29N 38°02' E 023°36'0 0.0
2018-Feb-14 16:59N 38°02' E 023°36'0 0.0
2018-Feb-14 16:29N 38°02' E 023°36'0 0.0
2018-Feb-14 15:59N 38°02' E 023°36'0 0.0
2018-Feb-14 15:29N 38°02' E 023°36'0 0.0
2018-Feb-14 14:59N 38°02' E 023°36'0 0.0
2018-Feb-14 14:29N 38°02' E 023°36'0 0.0
2018-Feb-14 13:59N 38°02' E 023°36'0 0.0
2018-Feb-14 13:29N 38°02' E 023°36'0 0.0
2018-Feb-14 12:59N 38°02' E 023°36'0 0.0
2018-Feb-14 12:29N 38°02' E 023°36'0 0.0
2018-Feb-14 11:56N 38°02' E 023°36'0 0.0
2018-Feb-14 11:26N 38°02' E 023°36'0 0.0
2018-Feb-14 10:59N 38°02' E 023°36'0 0.0
2018-Feb-14 10:30N 38°02' E 023°36'0 0.0
2018-Feb-14 10:00N 38°02' E 023°36'1 1.2
2018-Feb-14 09:30N 38°02' E 023°35'0 0.0
2018-Feb-14 09:00N 38°02' E 023°35'0 0.0
2018-Feb-14 08:30N 38°02' E 023°35'0 0.0
2018-Feb-14 08:00N 38°02' E 023°35'0 0.0
2018-Feb-14 07:30N 38°02' E 023°35'2 4.4
2018-Feb-14 07:00N 38°00' E 023°33'4 7.1
2018-Feb-14 06:30N 37°57' E 023°36'0 0.8
2018-Feb-14 05:59N 37°58' E 023°37'0 0.0
2018-Feb-14 05:26N 37°58' E 023°37'0 0.0
2018-Feb-14 04:59N 37°58' E 023°37'0 0.0
2018-Feb-14 04:29N 37°58' E 023°37'0 0.0
2018-Feb-14 03:59N 37°58' E 023°37'0 0.0
2018-Feb-14 03:29N 37°58' E 023°37'0 0.0
2018-Feb-14 02:59N 37°58' E 023°37'0 0.0
2018-Feb-14 02:29N 37°58' E 023°37'0 0.0
2018-Feb-14 01:59N 37°58' E 023°37'0 0.0
2018-Feb-14 01:29N 37°58' E 023°37'0 0.0
2018-Feb-14 00:59N 37°58' E 023°37'0 0.0
2018-Feb-14 00:29N 37°58' E 023°37'0 0.0
2018-Feb-13 23:59N 37°58' E 023°37'0 0.0
2018-Feb-13 23:29N 37°58' E 023°37'0 0.0
2018-Feb-13 22:59N 37°58' E 023°37'0 0.0
2018-Feb-13 22:29N 37°58' E 023°37'0 0.0
2018-Feb-13 21:59N 37°58' E 023°37'0 0.0
2018-Feb-13 21:29N 37°58' E 023°37'0 0.0
2018-Feb-13 20:59N 37°58' E 023°37'0 0.0
2018-Feb-13 20:29N 37°58' E 023°37'0 0.0
2018-Feb-13 19:59N 37°58' E 023°37'0 0.0
2018-Feb-13 19:29N 37°58' E 023°37'0 0.0
2018-Feb-13 18:59N 37°58' E 023°37'0 0.0
2018-Feb-13 18:29N 37°58' E 023°37'0 0.0
2018-Feb-13 17:59N 37°58' E 023°37'0 0.0
2018-Feb-13 17:29N 37°58' E 023°37'0 0.0
2018-Feb-13 16:59N 37°58' E 023°37'0 0.0
2018-Feb-13 16:29N 37°58' E 023°37'0 0.0
2018-Feb-13 15:59N 37°58' E 023°37'0 0.0
2018-Feb-13 15:29N 37°58' E 023°37'0 0.0
2018-Feb-13 14:59N 37°58' E 023°37'0 0.0
2018-Feb-13 14:29N 37°58' E 023°37'0 0.0
2018-Feb-13 13:59N 37°58' E 023°37'0 0.0
2018-Feb-13 13:29N 37°58' E 023°37'0 0.0
2018-Feb-13 12:59N 37°58' E 023°37'0 0.0
2018-Feb-13 12:29N 37°58' E 023°37'0 0.0
2018-Feb-13 11:59N 37°58' E 023°37'0 0.0
2018-Feb-13 11:29N 37°58' E 023°37'0 0.0
2018-Feb-13 10:59N 37°58' E 023°37'0 0.0
2018-Feb-13 10:29N 37°58' E 023°37'0 0.0
2018-Feb-13 09:59N 37°58' E 023°37'0 0.0
2018-Feb-13 09:29N 37°58' E 023°37'0 0.0
2018-Feb-13 08:59N 37°58' E 023°37'0 0.0
2018-Feb-13 08:29N 37°58' E 023°37'0 0.0
2018-Feb-13 07:59N 37°58' E 023°37'0 0.0
2018-Feb-13 07:29N 37°58' E 023°37'0 0.5
2018-Feb-13 07:00N 37°57' E 023°36'3 6.4
2018-Feb-13 06:31N 37°55' E 023°35'4 7.5
2018-Feb-13 05:59N 37°51' E 023°32'0 0.0
2018-Feb-13 05:29N 37°51' E 023°32'0 0.1
2018-Feb-13 04:59N 37°51' E 023°32'0 0.0
2018-Feb-13 04:29N 37°51' E 023°32'0 0.0
2018-Feb-13 03:59N 37°51' E 023°32'0 0.0
2018-Feb-13 03:29N 37°51' E 023°32'0 0.0
2018-Feb-13 02:59N 37°51' E 023°32'0 0.1
2018-Feb-13 02:29N 37°51' E 023°32'0 0.1
2018-Feb-13 01:59N 37°51' E 023°32'0 0.0
2018-Feb-13 01:29N 37°51' E 023°32'0 0.0
2018-Feb-13 00:59N 37°51' E 023°32'0 0.1
2018-Feb-13 00:29N 37°51' E 023°32'0 0.0
2018-Feb-12 23:59N 37°51' E 023°32'0 0.1
2018-Feb-12 23:29N 37°51' E 023°32'0 0.3
2018-Feb-12 23:00N 37°51' E 023°32'4 7.7
2018-Feb-12 22:30N 37°55' E 023°34'3 6.7
2018-Feb-12 22:00N 37°57' E 023°37'0 0.0
2018-Feb-12 21:30N 37°57' E 023°37'0 0.9
2018-Feb-12 21:00N 37°57' E 023°36'3 6.4
2018-Feb-12 20:30N 37°54' E 023°37'510.6
2018-Feb-12 20:00N 37°49' E 023°40'510.8
2018-Feb-12 19:30N 37°45' E 023°42'510.7
2018-Feb-12 19:00N 37°40' E 023°45'  
2018-Feb-09 08:01N 37°56' E 023°36'5 9.0
2018-Feb-09 07:31N 37°53' E 023°31'8 2.6
2018-Feb-09 04:30N 38°01' E 023°31'0 0.0
2018-Feb-09 02:30N 38°01' E 023°31'1 0.2
2018-Feb-08 22:00N 38°02' E 023°31'0 0.0
2018-Feb-08 21:30N 38°02' E 023°31'6 0.6
2018-Feb-08 11:30N 37°57' E 023°35'0 0.2
2018-Feb-08 11:00N 37°57' E 023°35'0 0.0
2018-Feb-08 10:30N 37°57' E 023°35'0 0.0
2018-Feb-08 05:30N 37°57' E 023°35'  

Dump ship's entire track history